< < Back
Terminal Aerodrome Forecast


Current Version              Previous Versions:   1  2  3  4  5  6  7  8  9  

Terminal Aerodrome Forecast

179
FTUS42 KCHS 241100
TAFCHS
TAF
KCHS 241133Z 2412/2512 02005KT P6SM BKN250
     FM242300 VRB03KT P6SM SCT150=



Latest METAR

815
SAUS80 KWBC 242300
MTRCHS
METAR KCHS 242256Z 31003KT 10SM FEW200 19/10 A2998 RMK AO2 SLP152
T01890100


USA.gov is the U.S. government's official web portal to all federal, state and local government web resources and services.